Ustick, Illinois
Current Conditions -  °F | °C
As of 8:35 AM on Thursday 23 Oct 2014 (Local Time) from KSQI Reporting Station
Clear Clear  
Wind Chill: 39°   Ceiling: Unl
Heat Index: 43°   Visibility: 9mi
Dew Point: 36°   Wind: 7mph
Humidity: 76%   Direction: 130°SE
Pressure: 30.18"   Gusts: NA
Location:  41.8285°N, 89.9656°W
Report Text: KSQI 231335Z AUTO 13006KT 9SM CLR 06/02 A3018 RMK AO1
Loading
Personal Weather Stations






























Interactive Weather Map
Tropical Storm Tracking
New forecast layout! Learn more

10-Day Weather Forecast

Advertisements
Track Severe Weather on mobile